Clearwater, Minnesota
Current Conditions -  °F | °C
As of 11:53 PM on Tuesday 21 Oct 2014 (Local Time) from KSTC Reporting Station
Clear Clear  
Wind Chill: 44°   Ceiling: Unl
Heat Index: 49°   Visibility: 10mi
Dew Point: 38°   Wind: 12mph
Humidity: 66%   Direction: 140°SE
Pressure: 30.13"   Gusts: NA
Location:  45.42°N, 94.05°W
Report Text: KSTC 220453Z AUTO 14010KT 10SM CLR 09/03 A3013 RMK AO2 SLP214 T00940033
Loading
Personal Weather Stations






























Interactive Weather Map
Tropical Storm Tracking
New forecast layout! Learn more

10-Day Weather Forecast

Advertisements
Track Severe Weather on mobile